Time;durP1;ratioP1;P1;durP2;ratioP2;P2;SDS_P1;SDS_P2;PMS_P1;PMS_P2;Temp;Humidity;BMP_temperature;BMP_pressure;BME280_temperature;BME280_humidity;BME280_pressure;Samples;Min_cycle;Max_cycle;Signal;HPM_P1;HPM_P2
2022/10/18 00:01:53;;;;;;;;;;;;;;;16.24;56.58;102511.44;5058879;28;1194;-53
2022/10/18 00:04:18;;;;;;;;;;;;;;;17.62;53.79;102507.16;5076794;28;1134;-51
2022/10/18 00:06:44;;;;;;;;;;;;;;;16.76;55.80;102513.72;5079086;28;1356;-52
2022/10/18 00:09:09;;;;;;;;;;;;;;;16.42;56.13;102502.34;5078621;28;1958;-52
2022/10/18 00:11:35;;;;;;;;;;;;;;;16.24;56.44;102507.84;5079061;28;1161;-52
2022/10/18 00:14:00;;;;;;;;;;;;;;;16.13;56.29;102506.72;5065526;28;1119;-52
2022/10/18 00:16:26;;;;;;;;;;;;;;;16.03;56.31;102500.88;5078058;28;1202;-52
2022/10/18 00:18:51;;;;;;;;;;;;;;;16.30;56.32;102504.19;5067176;28;2649;-48
2022/10/18 00:21:17;;;;;;;;;;;;;;;17.75;53.85;102504.19;5075895;28;1189;-52
2022/10/18 00:23:43;;;;;;;;;;;;;;;16.90;55.34;102500.69;5078805;28;1095;-50
2022/10/18 00:26:11;;;;;;;;;;;;;;;16.49;56.39;102495.94;5078388;28;1078;-52
2022/10/18 00:28:37;;;;;;;;;;;;;;;16.28;56.27;102491.75;5078388;28;1142;-54
2022/10/18 00:31:23;;;;;;;;;;;;;;;16.11;56.37;102486.88;5064918;28;1984;-51
2022/10/18 00:33:49;;;;;;;;;;;;;;;17.22;55.20;102488.56;5066747;28;1084;-52
2022/10/18 00:36:15;;;;;;;;;;;;;;;17.23;54.57;102490.25;5078516;28;1111;-50
2022/10/18 00:38:40;;;;;;;;;;;;;;;16.59;55.96;102476.97;5077906;28;1118;-51
2022/10/18 00:41:06;;;;;;;;;;;;;;;16.37;56.34;102480.22;5078403;28;1202;-50
2022/10/18 00:43:32;;;;;;;;;;;;;;;17.20;55.06;102468.72;5078182;28;1150;-51
2022/10/18 00:45:57;;;;;;;;;;;;;;;17.17;54.97;102460.97;5077965;28;1154;-51
2022/10/18 00:48:23;;;;;;;;;;;;;;;16.65;56.08;102461.47;5077869;28;2294;-50
2022/10/18 00:50:49;;;;;;;;;;;;;;;16.39;56.18;102461.59;5077557;28;1913;-51
2022/10/18 00:53:15;;;;;;;;;;;;;;;16.24;56.28;102459.28;5067872;28;1083;-52
2022/10/18 00:55:40;;;;;;;;;;;;;;;16.15;56.03;102459.81;5056742;28;1140;-53
2022/10/18 00:58:06;;;;;;;;;;;;;;;17.39;54.78;102458.44;5071729;28;1217;-51
2022/10/18 01:00:33;;;;;;;;;;;;;;;17.07;55.08;102451.38;5077270;28;1269;-52
2022/10/18 01:02:59;;;;;;;;;;;;;;;16.56;56.17;102450.00;5053446;28;926;-53
2022/10/18 01:05:24;;;;;;;;;;;;;;;16.34;56.23;102450.50;5058225;28;1100;-52
2022/10/18 01:07:52;;;;;;;;;;;;;;;16.22;56.22;102446.84;5058547;28;1201;-54
2022/10/18 01:10:24;;;;;;;;;;;;;;;17.05;55.48;102449.94;5077540;28;1982;-52
2022/10/18 01:13:02;;;;;;;;;;;;;;;17.31;54.55;102456.09;5076730;28;1131;-52
2022/10/18 01:15:29;;;;;;;;;;;;;;;16.62;56.06;102453.72;5077549;28;865;-52
2022/10/18 01:18:00;;;;;;;;;;;;;;;16.41;56.04;102455.88;5059765;28;2337;-53
2022/10/18 01:20:29;;;;;;;;;;;;;;;16.21;56.48;102451.47;5069668;28;1111;-52
2022/10/18 01:22:57;;;;;;;;;;;;;;;16.07;56.21;102448.09;5075152;28;1158;-52
2022/10/18 01:25:32;;;;;;;;;;;;;;;16.68;56.02;102450.03;5057883;28;1200;-52
2022/10/18 01:27:57;;;;;;;;;;;;;;;17.54;54.09;102441.47;5055664;28;1007;-52
2022/10/18 01:30:25;;;;;;;;;;;;;;;16.69;56.03;102454.44;5077188;28;1906;-52
2022/10/18 01:32:51;;;;;;;;;;;;;;;16.42;56.27;102455.69;5077510;28;1186;-50
2022/10/18 01:35:18;;;;;;;;;;;;;;;16.26;56.30;102450.81;5059769;28;1150;-52
2022/10/18 01:37:44;;;;;;;;;;;;;;;16.13;56.12;102443.59;5076839;28;1197;-51
2022/10/18 01:40:10;;;;;;;;;;;;;;;16.07;56.27;102445.34;5054111;28;1147;-51
2022/10/18 01:42:35;;;;;;;;;;;;;;;17.56;54.07;102445.69;5072741;28;1170;-51
2022/10/18 01:45:01;;;;;;;;;;;;;;;16.95;55.45;102456.00;5077581;28;1095;-52
2022/10/18 01:47:26;;;;;;;;;;;;;;;16.50;56.40;102450.94;5059632;28;1214;-50
2022/10/18 01:50:01;;;;;;;;;;;;;;;16.29;56.23;102453.09;5067007;28;2559;-51
2022/10/18 01:52:27;;;;;;;;;;;;;;;16.19;56.24;102450.06;5075051;28;1198;-52
2022/10/18 01:54:52;;;;;;;;;;;;;;;16.55;56.25;102448.31;5077004;28;1099;-50
2022/10/18 01:57:18;;;;;;;;;;;;;;;17.40;54.50;102441.75;5077163;28;1174;-50
2022/10/18 01:59:46;;;;;;;;;;;;;;;16.63;56.32;102445.22;5076696;28;1154;-51
2022/10/18 02:02:15;;;;;;;;;;;;;;;16.35;56.34;102443.91;5073725;28;1175;-50
2022/10/18 02:04:49;;;;;;;;;;;;;;;16.16;56.17;102445.88;5077305;28;1102;-50
2022/10/18 02:07:36;;;;;;;;;;;;;;;16.04;56.07;102437.53;5076947;28;1158;-51
2022/10/18 02:10:07;;;;;;;;;;;;;;;16.13;56.51;102440.84;5064964;28;1913;-52
2022/10/18 02:12:32;;;;;;;;;;;;;;;17.64;53.84;102436.22;5075482;28;1130;-54
2022/10/18 02:14:58;;;;;;;;;;;;;;;16.82;55.80;102432.28;5063705;28;885;-53
2022/10/18 02:17:24;;;;;;;;;;;;;;;16.43;56.40;102429.88;5065632;28;1202;-52
2022/10/18 02:19:50;;;;;;;;;;;;;;;16.24;56.57;102425.47;5058639;28;2709;-51
2022/10/18 02:22:16;;;;;;;;;;;;;;;16.08;56.51;102436.03;5076639;28;1154;-53
2022/10/18 02:24:42;;;;;;;;;;;;;;;16.33;56.37;102434.25;5058946;28;1155;-53
2022/10/18 02:27:07;;;;;;;;;;;;;;;17.66;53.72;102439.56;5032956;28;1107;-51
2022/10/18 02:29:33;;;;;;;;;;;;;;;16.71;55.87;102436.66;5056311;28;1898;-50
2022/10/18 02:32:19;;;;;;;;;;;;;;;16.40;56.22;102435.84;5063487;28;1108;-50
2022/10/18 02:34:49;;;;;;;;;;;;;;;16.21;56.08;102437.75;5058272;28;1230;-52
2022/10/18 02:37:14;;;;;;;;;;;;;;;16.03;56.33;102435.91;5058341;28;1210;-52
2022/10/18 02:39:44;;;;;;;;;;;;;;;15.93;56.09;102437.50;5075935;28;883;-52
2022/10/18 02:42:10;;;;;;;;;;;;;;;16.52;55.91;102435.91;5058608;28;1166;-51
2022/10/18 02:44:35;;;;;;;;;;;;;;;17.68;53.56;102425.56;5067242;28;1196;-50
2022/10/18 02:47:01;;;;;;;;;;;;;;;16.76;55.59;102430.50;5057399;28;1135;-51
2022/10/18 02:49:26;;;;;;;;;;;;;;;16.39;56.11;102425.91;5075999;28;2544;-48
2022/10/18 02:51:51;;;;;;;;;;;;;;;16.20;56.29;102416.88;5075902;28;828;-50
2022/10/18 02:54:17;;;;;;;;;;;;;;;16.19;56.45;102422.63;5075913;28;1186;-49
2022/10/18 02:56:42;;;;;;;;;;;;;;;17.68;53.79;102423.66;5076042;28;1111;-52
2022/10/18 02:59:08;;;;;;;;;;;;;;;16.88;55.21;102416.78;5075461;28;1126;-52
2022/10/18 03:01:34;;;;;;;;;;;;;;;16.48;55.88;102422.84;5076265;28;1171;-51
2022/10/18 03:04:00;;;;;;;;;;;;;;;16.28;56.00;102425.88;5075958;28;1106;-50
2022/10/18 03:06:26;;;;;;;;;;;;;;;16.10;56.11;102423.97;5075918;28;1138;-50
2022/10/18 03:08:51;;;;;;;;;;;;;;;16.41;56.25;102428.41;5076061;28;1138;-51
2022/10/18 03:11:17;;;;;;;;;;;;;;;17.77;53.18;102429.63;5075060;28;1906;-53
2022/10/18 03:13:42;;;;;;;;;;;;;;;16.85;55.39;102431.00;5075832;28;1107;-51
2022/10/18 03:16:08;;;;;;;;;;;;;;;16.49;55.87;102427.28;5064640;28;1182;-52
2022/10/18 03:18:33;;;;;;;;;;;;;;;16.28;56.18;102418.47;5075667;28;2486;-54
2022/10/18 03:21:02;;;;;;;;;;;;;;;16.41;56.31;102425.69;5075352;28;1178;-54
2022/10/18 03:23:28;;;;;;;;;;;;;;;17.62;53.35;102422.69;5075415;28;1123;-54
2022/10/18 03:25:53;;;;;;;;;;;;;;;16.74;55.66;102425.19;5075819;28;1130;-54
2022/10/18 03:28:18;;;;;;;;;;;;;;;16.40;56.22;102424.84;5075272;28;1181;-54
2022/10/18 03:30:44;;;;;;;;;;;;;;;16.26;56.11;102423.38;5075394;28;1909;-54
2022/10/18 03:33:09;;;;;;;;;;;;;;;16.91;55.20;102425.41;5075574;28;1119;-55
2022/10/18 03:35:35;;;;;;;;;;;;;;;17.50;53.54;102419.16;5075972;28;1127;-55
2022/10/18 03:38:00;;;;;;;;;;;;;;;16.71;55.65;102425.69;5075668;28;1225;-53
2022/10/18 03:40:26;;;;;;;;;;;;;;;16.41;55.94;102420.19;5074931;28;1111;-54
2022/10/18 03:42:51;;;;;;;;;;;;;;;16.24;56.03;102415.38;5075659;28;1095;-53
2022/10/18 03:45:16;;;;;;;;;;;;;;;16.36;56.06;102415.41;5075695;28;1071;-54
2022/10/18 03:47:42;;;;;;;;;;;;;;;17.82;53.04;102417.91;5073817;28;2417;-54
2022/10/18 03:50:08;;;;;;;;;;;;;;;16.91;55.07;102419.06;5068141;28;1989;-53
2022/10/18 03:52:33;;;;;;;;;;;;;;;16.55;55.77;102416.22;5064304;28;1127;-54
2022/10/18 03:54:58;;;;;;;;;;;;;;;16.30;56.16;102413.59;5075522;28;1130;-47
2022/10/18 03:57:24;;;;;;;;;;;;;;;16.20;56.05;102418.78;5075102;28;1194;-49
2022/10/18 03:59:49;;;;;;;;;;;;;;;16.09;56.24;102412.19;5075484;28;1067;-53
2022/10/18 04:02:15;;;;;;;;;;;;;;;17.60;53.74;102415.78;5075170;28;1139;-52
2022/10/18 04:04:40;;;;;;;;;;;;;;;16.90;55.19;102417.38;5074896;28;884;-53
2022/10/18 04:07:05;;;;;;;;;;;;;;;16.49;55.96;102410.81;5075044;28;1150;-53
2022/10/18 04:09:31;;;;;;;;;;;;;;;16.25;56.18;102411.53;5075172;28;2000;-54
2022/10/18 04:11:56;;;;;;;;;;;;;;;16.12;56.01;102411.72;5075477;28;1138;-54
2022/10/18 04:14:22;;;;;;;;;;;;;;;16.19;56.19;102412.47;5075315;28;1194;-54
2022/10/18 04:16:47;;;;;;;;;;;;;;;17.55;53.79;102418.41;5067266;28;1001;-54
2022/10/18 04:19:13;;;;;;;;;;;;;;;16.69;55.50;102421.47;5074957;28;2603;-54
2022/10/18 04:21:38;;;;;;;;;;;;;;;16.35;56.15;102416.47;5075917;28;1111;-54
2022/10/18 04:24:04;;;;;;;;;;;;;;;16.17;56.08;102419.25;5078748;28;1181;-54
2022/10/18 04:26:29;;;;;;;;;;;;;;;16.03;56.00;102408.44;5078985;28;1213;-54
2022/10/18 04:28:55;;;;;;;;;;;;;;;16.14;56.24;102416.97;5078259;28;866;-54
2022/10/18 04:31:20;;;;;;;;;;;;;;;17.60;53.57;102407.53;5064579;28;1909;-53
2022/10/18 04:33:46;;;;;;;;;;;;;;;16.77;55.28;102413.78;5074719;28;1197;-54
2022/10/18 04:36:11;;;;;;;;;;;;;;;16.33;56.10;102406.81;5078883;28;1178;-53
2022/10/18 04:38:37;;;;;;;;;;;;;;;16.17;56.01;102409.13;5078482;28;1357;-52
2022/10/18 04:41:02;;;;;;;;;;;;;;;16.05;56.04;102409.03;5078179;28;976;-54
2022/10/18 04:43:28;;;;;;;;;;;;;;;16.92;55.33;102409.75;5078825;28;1119;-54
2022/10/18 04:45:53;;;;;;;;;;;;;;;17.18;54.44;102411.25;5078198;28;1269;-54
2022/10/18 04:48:18;;;;;;;;;;;;;;;16.54;55.94;102405.47;5071326;28;1950;-54
2022/10/18 04:50:46;;;;;;;;;;;;;;;16.30;55.96;102405.38;5075940;28;1973;-54
2022/10/18 04:53:14;;;;;;;;;;;;;;;17.05;55.01;102405.94;5077989;28;847;-54
2022/10/18 04:55:49;;;;;;;;;;;;;;;17.38;53.80;102405.38;5078293;28;1139;-54
2022/10/18 04:58:15;;;;;;;;;;;;;;;16.68;55.47;102408.84;5078329;28;952;-54
2022/10/18 05:00:41;;;;;;;;;;;;;;;16.36;55.79;102412.66;5076542;28;1058;-54
2022/10/18 05:03:06;;;;;;;;;;;;;;;16.23;56.13;102401.88;5065950;28;1107;-53
2022/10/18 05:05:32;;;;;;;;;;;;;;;16.13;56.01;102407.06;5072760;28;876;-52
2022/10/18 05:07:57;;;;;;;;;;;;;;;17.42;54.28;102406.56;5077990;28;1208;-52
2022/10/18 05:10:23;;;;;;;;;;;;;;;16.99;54.75;102402.25;5077724;28;1910;-51
2022/10/18 05:12:48;;;;;;;;;;;;;;;16.51;56.02;102415.00;5078025;28;1190;-53
2022/10/18 05:15:13;;;;;;;;;;;;;;;16.32;56.20;102410.63;5078266;28;1256;-52
2022/10/18 05:17:39;;;;;;;;;;;;;;;16.22;55.90;102411.16;5077545;28;2281;-53
2022/10/18 05:20:05;;;;;;;;;;;;;;;16.05;56.20;102410.97;5077521;28;1146;-51
2022/10/18 05:22:30;;;;;;;;;;;;;;;16.76;55.66;102414.84;5077956;28;1103;-50
2022/10/18 05:24:55;;;;;;;;;;;;;;;17.38;53.96;102408.13;5077710;28;1197;-52
2022/10/18 05:27:21;;;;;;;;;;;;;;;16.61;56.03;102408.94;5077855;28;1051;-52
2022/10/18 05:29:46;;;;;;;;;;;;;;;16.36;56.27;102406.34;5076900;28;1965;-51
2022/10/18 05:32:12;;;;;;;;;;;;;;;16.19;56.40;102403.41;5077226;28;1178;-54
2022/10/18 05:34:37;;;;;;;;;;;;;;;16.10;56.31;102402.84;5077377;28;1225;-53
2022/10/18 05:37:03;;;;;;;;;;;;;;;17.63;53.85;102398.78;5074521;28;1130;-53
2022/10/18 05:39:28;;;;;;;;;;;;;;;16.64;54.35;102402.97;5066599;28;1166;-52
2022/10/18 05:41:53;;;;;;;;;;;;;;;16.24;52.67;102400.78;5077041;28;903;-51
2022/10/18 05:44:19;;;;;;;;;;;;;;;16.03;51.76;102402.97;5077217;28;1150;-52
2022/10/18 05:46:44;;;;;;;;;;;;;;;16.76;53.59;102406.59;5077358;28;1177;-52
2022/10/18 05:49:13;;;;;;;;;;;;;;;16.54;53.66;102406.28;5062744;28;2295;-52
2022/10/18 05:51:38;;;;;;;;;;;;;;;18.11;52.90;102400.38;5077614;28;1169;-52
2022/10/18 05:54:04;;;;;;;;;;;;;;;17.21;53.71;102404.44;5073846;28;1091;-53
2022/10/18 05:56:29;;;;;;;;;;;;;;;16.75;52.75;102404.09;5077435;28;1099;-52
2022/10/18 05:58:55;;;;;;;;;;;;;;;16.51;51.20;102405.91;5076728;28;1213;-53
2022/10/18 06:01:20;;;;;;;;;;;;;;;16.42;50.23;102406.25;5077066;28;1091;-52
2022/10/18 06:03:46;;;;;;;;;;;;;;;17.10;52.47;102406.91;5076311;28;1138;-52
2022/10/18 06:06:12;;;;;;;;;;;;;;;16.59;51.94;102411.91;5075902;28;1151;-52
2022/10/18 06:08:38;;;;;;;;;;;;;;;16.42;50.61;102411.75;5076860;28;1209;-51
2022/10/18 06:11:07;;;;;;;;;;;;;;;16.86;51.58;102413.44;5073588;28;1909;-52
2022/10/18 06:13:32;;;;;;;;;;;;;;;16.74;52.33;102408.72;5066485;28;1115;-52
2022/10/18 06:15:57;;;;;;;;;;;;;;;16.49;51.04;102414.38;5075654;28;1119;-53
2022/10/18 06:18:23;;;;;;;;;;;;;;;16.99;51.65;102415.16;5063884;28;2854;-52
2022/10/18 06:20:48;;;;;;;;;;;;;;;16.98;52.41;102417.06;5063057;28;1185;-52
2022/10/18 06:23:14;;;;;;;;;;;;;;;16.67;51.24;102408.00;5056588;28;1119;-52
2022/10/18 06:25:39;;;;;;;;;;;;;;;17.55;52.29;102412.91;5056613;28;1099;-51
2022/10/18 06:28:05;;;;;;;;;;;;;;;16.92;52.18;102420.75;5073010;28;1176;-52
2022/10/18 06:30:30;;;;;;;;;;;;;;;17.92;52.57;102423.66;5076289;28;1906;-51
2022/10/18 06:32:58;;;;;;;;;;;;;;;18.17;52.67;102412.31;5076506;28;1087;-51
2022/10/18 06:35:24;;;;;;;;;;;;;;;17.30;52.25;102422.22;5073018;28;1214;-52
2022/10/18 06:37:49;;;;;;;;;;;;;;;17.10;50.96;102417.91;5065835;28;1189;-51
2022/10/18 06:40:15;;;;;;;;;;;;;;;16.85;50.19;102420.00;5075774;28;1099;-49
2022/10/18 06:42:41;;;;;;;;;;;;;;;16.72;49.42;102416.38;5076099;28;1122;-51
2022/10/18 06:45:07;;;;;;;;;;;;;;;17.22;51.56;102403.34;5075766;28;1130;-51
2022/10/18 06:47:32;;;;;;;;;;;;;;;16.86;50.59;102408.75;5075701;28;2480;-49
2022/10/18 06:49:58;;;;;;;;;;;;;;;16.65;49.94;102404.66;5067482;28;1898;-50
2022/10/18 06:52:24;;;;;;;;;;;;;;;16.48;49.52;102406.38;5075779;28;1178;-52
2022/10/18 06:54:50;;;;;;;;;;;;;;;17.21;51.04;102397.00;5075861;28;1174;-49
2022/10/18 06:57:15;;;;;;;;;;;;;;;16.87;50.52;102398.59;5075631;28;1095;-48
2022/10/18 06:59:42;;;;;;;;;;;;;;;18.29;51.76;102398.53;5076047;28;1278;-50
2022/10/18 07:02:08;;;;;;;;;;;;;;;17.50;52.17;102399.03;5075765;28;1106;-50
2022/10/18 07:04:33;;;;;;;;;;;;;;;17.10;51.27;102401.41;5070195;28;1118;-49
2022/10/18 07:06:59;;;;;;;;;;;;;;;17.14;51.35;102406.44;5067049;28;1143;-51
2022/10/18 07:09:24;;;;;;;;;;;;;;;17.20;51.81;102402.75;5075579;28;1972;-51
2022/10/18 07:11:51;;;;;;;;;;;;;;;16.97;50.63;102390.66;5076080;28;1130;-49
2022/10/18 07:14:17;;;;;;;;;;;;;;;16.84;49.62;102397.16;5076623;28;1141;-50
2022/10/18 07:16:42;;;;;;;;;;;;;;;16.64;49.17;102402.97;5075116;28;1155;-47
2022/10/18 07:19:07;;;;;;;;;;;;;;;16.64;48.42;102405.72;5062339;28;2632;-50
2022/10/18 07:21:33;;;;;;;;;;;;;;;16.89;49.38;102396.50;5055742;28;1205;-49
2022/10/18 07:23:58;;;;;;;;;;;;;;;17.12;51.19;102397.59;5055714;28;1111;-50
2022/10/18 07:26:26;;;;;;;;;;;;;;;16.84;50.06;102399.09;5055823;28;1383;-51
2022/10/18 07:29:03;;;;;;;;;;;;;;;16.68;49.38;102395.94;5064961;28;1131;-45
2022/10/18 07:31:28;;;;;;;;;;;;;;;17.59;50.39;102392.94;5075771;28;1992;-51
2022/10/18 07:33:54;;;;;;;;;;;;;;;17.17;50.96;102384.00;5075934;28;1122;-50
2022/10/18 07:36:23;;;;;;;;;;;;;;;16.92;50.05;102390.53;5076000;28;1114;-49
2022/10/18 07:38:49;;;;;;;;;;;;;;;17.68;51.02;102390.63;5072274;28;1209;-50
2022/10/18 07:41:15;;;;;;;;;;;;;;;17.07;50.90;102379.91;5037679;28;1454;-50
2022/10/18 07:43:41;;;;;;;;;;;;;;;16.81;50.04;102385.81;5070651;28;1107;-48
2022/10/18 07:46:07;;;;;;;;;;;;;;;17.57;50.58;102380.50;5075325;28;1115;-50
2022/10/18 07:48:32;;;;;;;;;;;;;;;16.97;50.51;102379.69;5075623;28;1835;-48
2022/10/18 07:50:58;;;;;;;;;;;;;;;16.85;49.55;102373.28;5055818;28;1913;-49
2022/10/18 07:53:24;;;;;;;;;;;;;;;17.15;50.12;102367.72;5062085;28;1079;-46
2022/10/18 07:55:49;;;;;;;;;;;;;;;17.30;50.48;102366.41;5076508;28;1203;-47
2022/10/18 07:58:15;;;;;;;;;;;;;;;16.92;49.92;102374.03;5079357;28;1190;-48
2022/10/18 08:00:40;;;;;;;;;;;;;;;16.83;49.14;102384.53;5078841;28;1139;-48
2022/10/18 08:03:06;;;;;;;;;;;;;;;16.59;48.74;102369.88;5079168;28;1091;-48
2022/10/18 08:05:31;;;;;;;;;;;;;;;17.31;50.29;102368.09;5065371;28;1182;-47
2022/10/18 08:07:57;;;;;;;;;;;;;;;16.99;49.71;102363.78;5078908;28;1119;-48
2022/10/18 08:10:25;;;;;;;;;;;;;;;16.72;49.35;102375.16;5079147;28;1976;-46
2022/10/18 08:12:51;;;;;;;;;;;;;;;16.86;49.39;102367.56;5079176;28;1182;-49
2022/10/18 08:15:17;;;;;;;;;;;;;;;17.38;50.42;102366.06;5060460;28;1384;-46
2022/10/18 08:17:43;;;;;;;;;;;;;;;16.92;49.96;102357.56;5078268;28;1863;-45
2022/10/18 08:20:08;;;;;;;;;;;;;;;16.74;49.38;102359.28;5078697;28;1102;-49
2022/10/18 08:22:34;;;;;;;;;;;;;;;17.67;50.15;102355.13;5079025;28;1111;-50
2022/10/18 08:24:59;;;;;;;;;;;;;;;17.08;50.08;102345.88;5072892;28;1138;-47
2022/10/18 08:27:25;;;;;;;;;;;;;;;16.89;49.50;102350.63;5058580;28;1158;-44
2022/10/18 08:29:50;;;;;;;;;;;;;;;16.73;48.75;102343.88;5075899;28;1902;-49
2022/10/18 08:32:16;;;;;;;;;;;;;;;16.60;48.46;102344.09;5078951;28;1114;-49
2022/10/18 08:34:41;;;;;;;;;;;;;;;16.88;49.28;102343.44;5078696;28;1154;-47
2022/10/18 08:37:07;;;;;;;;;;;;;;;17.36;50.21;102347.06;5078509;28;1165;-51
2022/10/18 08:39:32;;;;;;;;;;;;;;;16.89;50.13;102339.63;5078407;28;1084;-49
2022/10/18 08:42:10;;;;;;;;;;;;;;;18.52;50.01;102338.91;5078015;28;1182;-47
2022/10/18 08:44:40;;;;;;;;;;;;;;;17.52;51.10;102344.63;5078589;28;1165;-48
2022/10/18 08:47:06;;;;;;;;;;;;;;;17.21;49.92;102336.53;5078042;28;1179;-49
2022/10/18 08:49:38;;;;;;;;;;;;;;;16.91;49.54;102325.66;5077126;28;2526;-46
2022/10/18 08:52:05;;;;;;;;;;;;;;;16.83;48.65;102323.22;5076863;28;1209;-47
2022/10/18 08:54:33;;;;;;;;;;;;;;;16.68;48.51;102327.28;5071591;28;1126;-48
2022/10/18 08:57:00;;;;;;;;;;;;;;;17.14;49.30;102333.06;5060185;28;1104;-46
2022/10/18 08:59:26;;;;;;;;;;;;;;;17.19;50.45;102322.19;5077938;28;1223;-49
2022/10/18 09:01:51;;;;;;;;;;;;;;;16.89;49.64;102330.56;5076884;28;1158;-50
2022/10/18 09:04:26;;;;;;;;;;;;;;;16.76;48.98;102317.88;5077850;28;1169;-50
2022/10/18 09:07:10;;;;;;;;;;;;;;;16.76;48.20;102315.94;5049436;28;1003;-46
2022/10/18 09:09:41;;;;;;;;;;;;;;;17.48;49.10;102314.03;5057498;28;1917;-48
2022/10/18 09:12:27;;;;;;;;;;;;;;;16.89;49.32;102312.16;5057769;28;1146;-48
2022/10/18 09:15:08;;;;;;;;;;;;;;;18.35;49.77;102311.34;5053306;28;1163;-52
2022/10/18 09:17:40;;;;;;;;;;;;;;;17.56;50.93;102310.91;5074860;28;2284;-49
2022/10/18 09:20:44;;;;;;;;;;;;;;;17.12;50.39;102306.91;5072672;28;1178;-47
2022/10/18 09:23:16;;;;;;;;;;;;;;;17.00;48.90;102307.75;4997428;28;1337;-48
2022/10/18 09:25:45;;;;;;;;;;;;;;;16.83;48.80;102295.75;5008125;28;1259;-49
2022/10/18 09:28:14;;;;;;;;;;;;;;;17.61;49.57;102294.50;5036123;28;1119;-48
2022/10/18 09:31:00;;;;;;;;;;;;;;;17.01;50.05;102292.94;5077373;28;1921;-50
2022/10/18 09:33:35;;;;;;;;;;;;;;;16.82;49.11;102289.44;5066265;28;1318;-49
2022/10/18 09:36:01;;;;;;;;;;;;;;;16.77;48.23;102283.81;5076975;28;1166;-51
2022/10/18 09:38:45;;;;;;;;;;;;;;;17.78;49.82;102286.31;5059028;28;1131;-47
2022/10/18 09:41:22;;;;;;;;;;;;;;;17.01;50.04;102287.44;5066292;28;1150;-51
2022/10/18 09:43:56;;;;;;;;;;;;;;;17.44;50.35;102277.91;5042592;28;954;-48
2022/10/18 09:46:23;;;;;;;;;;;;;;;17.19;50.29;102271.88;5057360;28;1186;-50
2022/10/18 09:48:53;;;;;;;;;;;;;;;17.00;49.34;102274.75;5058902;28;2333;-46
2022/10/18 09:51:22;;;;;;;;;;;;;;;16.85;48.68;102266.13;5070919;28;1914;-49
2022/10/18 09:54:00;;;;;;;;;;;;;;;17.12;49.03;102254.69;5059399;28;1183;-50
2022/10/18 09:56:28;;;;;;;;;;;;;;;17.12;50.03;102249.19;5068785;28;1194;-50
2022/10/18 09:58:53;;;;;;;;;;;;;;;16.90;49.30;102249.78;5071770;28;1163;-49
2022/10/18 10:01:25;;;;;;;;;;;;;;;16.77;48.87;102259.94;5077311;28;1139;-44
2022/10/18 10:03:51;;;;;;;;;;;;;;;16.67;48.17;102259.66;5076784;28;1130;-48
2022/10/18 10:06:24;;;;;;;;;;;;;;;16.57;47.88;102249.28;5076094;28;1122;-50
2022/10/18 10:08:53;;;;;;;;;;;;;;;17.45;49.30;102238.34;5076819;28;1122;-48
2022/10/18 10:11:25;;;;;;;;;;;;;;;16.98;49.48;102237.59;5076233;28;1913;-49
2022/10/18 10:13:51;;;;;;;;;;;;;;;16.77;48.90;102234.34;5076724;28;1172;-51
2022/10/18 10:16:16;;;;;;;;;;;;;;;16.75;49.08;102234.59;5076725;28;1193;-51
2022/10/18 10:18:42;;;;;;;;;;;;;;;17.46;49.81;102214.44;5066452;28;2540;-50
2022/10/18 10:21:12;;;;;;;;;;;;;;;16.99;49.39;102212.63;5054295;28;1211;-49
2022/10/18 10:23:38;;;;;;;;;;;;;;;17.54;49.66;102215.97;5076688;28;1205;-52
2022/10/18 10:26:05;;;;;;;;;;;;;;;17.21;49.83;102214.75;5076505;28;1083;-51
2022/10/18 10:28:32;;;;;;;;;;;;;;;16.92;49.12;102209.19;5072072;28;1230;-49
2022/10/18 10:31:16;;;;;;;;;;;;;;;16.68;48.99;102200.94;5058096;28;1971;-52
2022/10/18 10:33:42;;;;;;;;;;;;;;;16.71;47.81;102194.13;5063510;28;1287;-46
2022/10/18 10:36:17;;;;;;;;;;;;;;;17.55;48.77;102203.88;5058342;28;1107;-51
2022/10/18 10:38:42;;;;;;;;;;;;;;;16.99;49.25;102198.91;5075833;28;1282;-50
2022/10/18 10:41:18;;;;;;;;;;;;;;;16.77;48.67;102187.66;5075834;28;1190;-47
2022/10/18 10:43:44;;;;;;;;;;;;;;;17.22;48.94;102187.03;5075555;28;1201;-50
2022/10/18 10:46:17;;;;;;;;;;;;;;;17.42;49.52;102180.25;5076395;28;1193;-48
2022/10/18 10:48:47;;;;;;;;;;;;;;;16.96;49.12;102174.66;5057210;28;2435;-52
2022/10/18 10:51:13;;;;;;;;;;;;;;;16.79;48.63;102176.44;5045561;28;1901;-53
2022/10/18 10:53:41;;;;;;;;;;;;;;;16.71;48.17;102172.97;5058338;28;1107;-51
2022/10/18 10:56:33;;;;;;;;;;;;;;;16.87;48.17;102178.81;5073555;28;976;-50
2022/10/18 10:59:19;;;;;;;;;;;;;;;17.14;49.54;102164.56;5035162;28;1167;-48
2022/10/18 11:01:46;;;;;;;;;;;;;;;16.85;49.06;102164.50;5075235;28;1609;-51
2022/10/18 11:04:25;;;;;;;;;;;;;;;16.65;48.52;102160.22;5058211;28;1194;-50
2022/10/18 11:06:56;;;;;;;;;;;;;;;16.72;48.06;102163.66;5069796;28;1201;-48
2022/10/18 11:09:35;;;;;;;;;;;;;;;17.48;49.23;102142.69;5072982;28;1142;-51
2022/10/18 11:12:07;;;;;;;;;;;;;;;17.03;49.13;102147.03;5058220;28;1423;-49
2022/10/18 11:14:37;;;;;;;;;;;;;;;16.88;49.10;102145.63;5074878;28;1225;-51
2022/10/18 11:17:24;;;;;;;;;;;;;;;17.41;49.58;102135.41;5058333;28;1150;-47
2022/10/18 11:19:56;;;;;;;;;;;;;;;16.94;49.33;102138.31;5060889;28;2582;-46
2022/10/18 11:22:22;;;;;;;;;;;;;;;16.83;48.71;102130.91;5076283;28;1099;-50
2022/10/18 11:24:47;;;;;;;;;;;;;;;16.83;47.68;102125.41;5075967;28;1162;-49
2022/10/18 11:27:29;;;;;;;;;;;;;;;17.88;48.67;102108.72;5075938;28;1083;-48
2022/10/18 11:30:02;;;;;;;;;;;;;;;17.09;49.35;102116.66;5043825;28;1977;-46
2022/10/18 11:32:37;;;;;;;;;;;;;;;16.83;48.97;102103.44;5079509;28;987;-49
2022/10/18 11:35:19;;;;;;;;;;;;;;;16.71;48.24;102107.06;5079625;28;1193;-49
2022/10/18 11:38:03;;;;;;;;;;;;;;;16.66;47.90;102103.38;5078446;28;1122;-50
2022/10/18 11:40:35;;;;;;;;;;;;;;;17.46;49.25;102101.69;5079634;28;1186;-51
2022/10/18 11:43:05;;;;;;;;;;;;;;;16.99;49.16;102088.16;5079331;28;1209;-47
2022/10/18 11:45:37;;;;;;;;;;;;;;;16.86;48.48;102086.50;5080335;28;1087;-55
2022/10/18 11:48:12;;;;;;;;;;;;;;;17.81;48.69;102086.03;5070038;28;2327;-51
2022/10/18 11:50:52;;;;;;;;;;;;;;;17.14;49.27;102071.09;5075652;28;1910;-50
2022/10/18 11:53:36;;;;;;;;;;;;;;;16.87;48.67;102067.03;5079900;28;1181;-53
2022/10/18 11:56:07;;;;;;;;;;;;;;;16.78;47.92;102082.19;5079073;28;1213;-52
2022/10/18 11:58:36;;;;;;;;;;;;;;;17.53;48.62;102072.13;5077858;28;1143;-52
2022/10/18 12:01:30;;;;;;;;;;;;;;;16.96;48.89;102078.47;5079160;28;1174;-55
2022/10/18 12:04:16;;;;;;;;;;;;;;;18.45;48.78;102074.63;5065617;28;1330;-54
2022/10/18 12:06:42;;;;;;;;;;;;;;;17.52;49.85;102072.38;5070378;28;1233;-54
2022/10/18 12:09:18;;;;;;;;;;;;;;;17.17;49.17;102076.13;5074328;28;1158;-54
2022/10/18 12:11:49;;;;;;;;;;;;;;;17.05;48.57;102073.41;5072447;28;1974;-53
2022/10/18 12:14:50;;;;;;;;;;;;;;;16.86;48.33;102064.53;5060957;28;1237;-51
2022/10/18 12:17:19;;;;;;;;;;;;;;;17.46;49.13;102054.94;5016850;28;1283;-52
2022/10/18 12:19:45;;;;;;;;;;;;;;;16.96;49.33;102053.75;5046145;28;2646;-47
2022/10/18 12:22:31;;;;;;;;;;;;;;;16.87;48.32;102052.44;5077646;28;1115;-47
2022/10/18 12:24:57;;;;;;;;;;;;;;;17.92;49.09;102050.22;5061131;28;1218;-45
2022/10/18 12:27:31;;;;;;;;;;;;;;;17.29;49.49;102041.16;5078744;28;1126;-49
2022/10/18 12:29:58;;;;;;;;;;;;;;;17.01;48.83;102045.63;5078371;28;1911;-47
2022/10/18 12:32:24;;;;;;;;;;;;;;;16.82;48.37;102046.84;5074036;28;945;-49
2022/10/18 12:34:50;;;;;;;;;;;;;;;16.77;47.76;102033.81;5060917;28;1202;-52
2022/10/18 12:37:39;;;;;;;;;;;;;;;17.04;48.54;102033.28;5060693;28;1166;-47
2022/10/18 12:40:15;;;;;;;;;;;;;;;17.26;49.52;102037.00;5069559;28;1404;-50
2022/10/18 12:42:41;;;;;;;;;;;;;;;16.97;48.97;102030.69;5039450;28;1081;-50
2022/10/18 12:45:16;;;;;;;;;;;;;;;16.84;47.94;102025.44;5054019;28;906;-50
2022/10/18 12:47:41;;;;;;;;;;;;;;;16.68;47.80;102019.66;5063394;28;1825;-49
2022/10/18 12:50:22;;;;;;;;;;;;;;;17.85;48.33;102015.66;5070622;28;1987;-52
2022/10/18 12:52:59;;;;;;;;;;;;;;;17.05;48.92;102008.28;5074101;28;1059;-50
2022/10/18 12:55:25;;;;;;;;;;;;;;;17.75;49.31;102003.44;5057014;28;1166;-48